sensor_id;sensor_type;location;lat;lon;timestamp;pressure;altitude;pressure_sealevel;temperature;humidity
49397;BME280;35615;41.410;2.194;2022-08-16T00:01:22;100782.56;;;30.75;44.58
49397;BME280;35615;41.410;2.194;2022-08-16T00:03:55;100785.69;;;30.84;44.54
49397;BME280;35615;41.410;2.194;2022-08-16T00:06:24;100787.75;;;30.78;44.40
49397;BME280;35615;41.410;2.194;2022-08-16T00:08:53;100789.47;;;30.79;44.20
49397;BME280;35615;41.410;2.194;2022-08-16T00:11:21;100784.06;;;30.80;44.27
49397;BME280;35615;41.410;2.194;2022-08-16T00:13:52;100788.63;;;30.78;44.36
49397;BME280;35615;41.410;2.194;2022-08-16T00:16:26;100787.44;;;30.65;44.28
49397;BME280;35615;41.410;2.194;2022-08-16T00:19:19;100794.44;;;30.68;44.52
49397;BME280;35615;41.410;2.194;2022-08-16T00:21:53;100797.91;;;30.70;44.47
49397;BME280;35615;41.410;2.194;2022-08-16T00:24:28;100794.25;;;30.72;43.77
49397;BME280;35615;41.410;2.194;2022-08-16T00:27:03;100799.69;;;30.69;44.54
49397;BME280;35615;41.410;2.194;2022-08-16T00:29:35;100798.75;;;30.70;43.90
49397;BME280;35615;41.410;2.194;2022-08-16T00:32:08;100786.56;;;30.64;44.65
49397;BME280;35615;41.410;2.194;2022-08-16T00:34:45;100791.91;;;30.64;44.60
49397;BME280;35615;41.410;2.194;2022-08-16T00:37:25;100794.00;;;30.56;44.52
49397;BME280;35615;41.410;2.194;2022-08-16T00:40:32;100789.06;;;30.47;44.15
49397;BME280;35615;41.410;2.194;2022-08-16T00:43:07;100791.63;;;30.50;44.17
49397;BME280;35615;41.410;2.194;2022-08-16T00:48:29;100789.06;;;30.47;44.60
49397;BME280;35615;41.410;2.194;2022-08-16T00:51:16;100778.38;;;30.49;44.66
49397;BME280;35615;41.410;2.194;2022-08-16T00:53:48;100783.63;;;30.50;44.52
49397;BME280;35615;41.410;2.194;2022-08-16T00:56:28;100777.69;;;30.44;44.54
49397;BME280;35615;41.410;2.194;2022-08-16T01:01:56;100771.72;;;30.39;44.68
49397;BME280;35615;41.410;2.194;2022-08-16T01:04:26;100773.16;;;30.46;44.23
49397;BME280;35615;41.410;2.194;2022-08-16T01:06:58;100769.44;;;30.50;44.13
49397;BME280;35615;41.410;2.194;2022-08-16T01:09:31;100779.28;;;30.48;44.52
49397;BME280;35615;41.410;2.194;2022-08-16T01:12:02;100766.63;;;30.53;44.69
49397;BME280;35615;41.410;2.194;2022-08-16T01:14:40;100770.22;;;30.52;44.21
49397;BME280;35615;41.410;2.194;2022-08-16T01:17:15;100764.81;;;30.53;44.31
49397;BME280;35615;41.410;2.194;2022-08-16T01:19:53;100765.63;;;30.55;44.31
49397;BME280;35615;41.410;2.194;2022-08-16T01:22:49;100760.22;;;30.57;44.47
49397;BME280;35615;41.410;2.194;2022-08-16T01:25:29;100766.47;;;30.56;44.24
49397;BME280;35615;41.410;2.194;2022-08-16T01:28:07;100759.34;;;30.56;44.43
49397;BME280;35615;41.410;2.194;2022-08-16T01:30:52;100761.81;;;30.61;44.05
49397;BME280;35615;41.410;2.194;2022-08-16T01:33:22;100754.75;;;30.60;44.54
49397;BME280;35615;41.410;2.194;2022-08-16T01:36:07;100749.69;;;30.54;44.28
49397;BME280;35615;41.410;2.194;2022-08-16T01:38:43;100746.00;;;30.56;44.54
49397;BME280;35615;41.410;2.194;2022-08-16T01:41:27;100740.75;;;30.55;44.46
49397;BME280;35615;41.410;2.194;2022-08-16T01:44:00;100733.84;;;30.51;44.86
49397;BME280;35615;41.410;2.194;2022-08-16T01:46:34;100735.72;;;30.49;44.29
49397;BME280;35615;41.410;2.194;2022-08-16T01:51:50;100722.56;;;30.44;44.81
49397;BME280;35615;41.410;2.194;2022-08-16T01:54:27;100723.50;;;30.43;44.41
49397;BME280;35615;41.410;2.194;2022-08-16T01:56:59;100720.84;;;30.43;44.37
49397;BME280;35615;41.410;2.194;2022-08-16T02:02:45;100730.97;;;30.35;44.96
49397;BME280;35615;41.410;2.194;2022-08-16T02:05:22;100728.53;;;30.30;45.01
49397;BME280;35615;41.410;2.194;2022-08-16T02:08:01;100725.94;;;30.29;45.33
49397;BME280;35615;41.410;2.194;2022-08-16T02:10:30;100719.72;;;30.28;45.14
49397;BME280;35615;41.410;2.194;2022-08-16T02:13:03;100720.59;;;30.29;45.43
49397;BME280;35615;41.410;2.194;2022-08-16T02:15:35;100721.53;;;30.28;45.34
49397;BME280;35615;41.410;2.194;2022-08-16T02:18:12;100721.53;;;30.28;44.88
49397;BME280;35615;41.410;2.194;2022-08-16T02:20:50;100722.50;;;30.25;45.04
49397;BME280;35615;41.410;2.194;2022-08-16T02:23:35;100716.69;;;30.17;45.72
49397;BME280;35615;41.410;2.194;2022-08-16T02:26:22;100722.59;;;30.24;44.82
49397;BME280;35615;41.410;2.194;2022-08-16T02:28:54;100722.88;;;30.18;45.58
49397;BME280;35615;41.410;2.194;2022-08-16T02:31:27;100719.44;;;30.14;45.34
49397;BME280;35615;41.410;2.194;2022-08-16T02:34:17;100719.41;;;30.16;45.46
49397;BME280;35615;41.410;2.194;2022-08-16T02:37:07;100715.06;;;30.13;45.43
49397;BME280;35615;41.410;2.194;2022-08-16T02:39:36;100722.41;;;30.08;45.79
49397;BME280;35615;41.410;2.194;2022-08-16T02:42:07;100713.59;;;30.06;46.00
49397;BME280;35615;41.410;2.194;2022-08-16T02:44:38;100717.84;;;30.10;45.80
49397;BME280;35615;41.410;2.194;2022-08-16T02:47:08;100712.53;;;30.10;45.81
49397;BME280;35615;41.410;2.194;2022-08-16T02:49:52;100707.41;;;30.04;45.79
49397;BME280;35615;41.410;2.194;2022-08-16T02:52:40;100711.47;;;29.92;45.94
49397;BME280;35615;41.410;2.194;2022-08-16T02:55:11;100709.50;;;29.97;46.07
49397;BME280;35615;41.410;2.194;2022-08-16T02:57:42;100705.34;;;29.90;46.03
49397;BME280;35615;41.410;2.194;2022-08-16T03:00:20;100710.91;;;29.86;45.95
49397;BME280;35615;41.410;2.194;2022-08-16T03:03:01;100701.03;;;29.88;45.91
49397;BME280;35615;41.410;2.194;2022-08-16T03:05:29;100693.97;;;29.87;45.79
49397;BME280;35615;41.410;2.194;2022-08-16T03:08:00;100694.03;;;29.85;46.31
49397;BME280;35615;41.410;2.194;2022-08-16T03:10:33;100691.56;;;29.80;45.81
49397;BME280;35615;41.410;2.194;2022-08-16T03:13:01;100683.63;;;29.79;46.76
49397;BME280;35615;41.410;2.194;2022-08-16T03:15:39;100685.81;;;29.69;46.34
49397;BME280;35615;41.410;2.194;2022-08-16T03:18:06;100676.91;;;29.70;46.13
49397;BME280;35615;41.410;2.194;2022-08-16T03:20:45;100681.03;;;29.77;46.54
49397;BME280;35615;41.410;2.194;2022-08-16T03:23:22;100680.25;;;29.75;46.68
49397;BME280;35615;41.410;2.194;2022-08-16T03:25:50;100675.44;;;29.63;46.99
49397;BME280;35615;41.410;2.194;2022-08-16T03:28:21;100669.84;;;29.69;46.58
49397;BME280;35615;41.410;2.194;2022-08-16T03:30:50;100670.97;;;29.64;46.12
49397;BME280;35615;41.410;2.194;2022-08-16T03:33:22;100670.38;;;29.57;46.40
49397;BME280;35615;41.410;2.194;2022-08-16T03:35:53;100663.59;;;29.50;46.69
49397;BME280;35615;41.410;2.194;2022-08-16T03:38:50;100671.28;;;29.56;46.87
49397;BME280;35615;41.410;2.194;2022-08-16T03:41:19;100668.78;;;29.53;46.53
49397;BME280;35615;41.410;2.194;2022-08-16T03:43:56;100666.09;;;29.53;46.75
49397;BME280;35615;41.410;2.194;2022-08-16T03:46:29;100661.78;;;29.50;46.51
49397;BME280;35615;41.410;2.194;2022-08-16T03:49:19;100653.06;;;29.45;46.73
49397;BME280;35615;41.410;2.194;2022-08-16T03:51:52;100655.88;;;29.42;47.05
49397;BME280;35615;41.410;2.194;2022-08-16T03:54:25;100648.69;;;29.44;46.78
49397;BME280;35615;41.410;2.194;2022-08-16T03:56:56;100643.28;;;29.46;46.64
49397;BME280;35615;41.410;2.194;2022-08-16T03:59:29;100645.94;;;29.46;46.95
49397;BME280;35615;41.410;2.194;2022-08-16T04:02:04;100641.50;;;29.46;46.87
49397;BME280;35615;41.410;2.194;2022-08-16T04:04:48;100633.44;;;29.49;47.26
49397;BME280;35615;41.410;2.194;2022-08-16T04:07:18;100639.63;;;29.50;46.95
49397;BME280;35615;41.410;2.194;2022-08-16T04:09:46;100649.56;;;29.45;46.92
49397;BME280;35615;41.410;2.194;2022-08-16T04:12:14;100646.81;;;29.46;47.25
49397;BME280;35615;41.410;2.194;2022-08-16T04:15:05;100650.31;;;29.48;47.14
49397;BME280;35615;41.410;2.194;2022-08-16T04:17:38;100653.66;;;29.32;47.62
49397;BME280;35615;41.410;2.194;2022-08-16T04:20:08;100654.06;;;29.43;47.80
49397;BME280;35615;41.410;2.194;2022-08-16T04:22:57;100656.59;;;29.46;47.29
49397;BME280;35615;41.410;2.194;2022-08-16T04:25:27;100653.88;;;29.49;47.34
49397;BME280;35615;41.410;2.194;2022-08-16T04:27:55;100649.34;;;29.51;47.62
49397;BME280;35615;41.410;2.194;2022-08-16T04:30:43;100663.50;;;29.52;47.36
49397;BME280;35615;41.410;2.194;2022-08-16T04:33:13;100659.84;;;29.54;47.73
49397;BME280;35615;41.410;2.194;2022-08-16T04:35:42;100663.63;;;29.48;47.76
49397;BME280;35615;41.410;2.194;2022-08-16T04:38:15;100665.41;;;29.48;47.79
49397;BME280;35615;41.410;2.194;2022-08-16T04:40:50;100670.19;;;29.40;47.91
49397;BME280;35615;41.410;2.194;2022-08-16T04:43:20;100671.78;;;29.44;47.38
49397;BME280;35615;41.410;2.194;2022-08-16T04:45:49;100675.22;;;29.46;47.32
49397;BME280;35615;41.410;2.194;2022-08-16T04:48:27;100669.13;;;29.44;47.60
49397;BME280;35615;41.410;2.194;2022-08-16T04:51:06;100669.41;;;29.36;47.96
49397;BME280;35615;41.410;2.194;2022-08-16T04:53:48;100669.38;;;29.38;47.77
49397;BME280;35615;41.410;2.194;2022-08-16T04:56:19;100675.81;;;29.32;47.78
49397;BME280;35615;41.410;2.194;2022-08-16T04:58:49;100674.81;;;29.35;47.89
49397;BME280;35615;41.410;2.194;2022-08-16T05:01:23;100675.81;;;29.32;47.47
49397;BME280;35615;41.410;2.194;2022-08-16T05:04:11;100668.81;;;29.30;47.62
49397;BME280;35615;41.410;2.194;2022-08-16T05:06:47;100672.28;;;29.32;47.63
49397;BME280;35615;41.410;2.194;2022-08-16T05:09:22;100676.09;;;29.25;48.10
49397;BME280;35615;41.410;2.194;2022-08-16T05:11:54;100684.53;;;29.14;48.12
49397;BME280;35615;41.410;2.194;2022-08-16T05:14:25;100685.22;;;29.19;48.13
49397;BME280;35615;41.410;2.194;2022-08-16T05:17:20;100676.47;;;29.15;48.27
49397;BME280;35615;41.410;2.194;2022-08-16T05:19:57;100696.66;;;29.21;47.99
49397;BME280;35615;41.410;2.194;2022-08-16T05:22:32;100693.25;;;29.17;47.95
49397;BME280;35615;41.410;2.194;2022-08-16T05:25:05;100695.00;;;29.18;47.75
49397;BME280;35615;41.410;2.194;2022-08-16T05:27:40;100698.38;;;29.22;47.59
49397;BME280;35615;41.410;2.194;2022-08-16T05:30:12;100690.31;;;29.02;48.16
49397;BME280;35615;41.410;2.194;2022-08-16T05:33:02;100689.84;;;29.14;47.80
49397;BME280;35615;41.410;2.194;2022-08-16T05:35:30;100683.91;;;29.07;47.53
49397;BME280;35615;41.410;2.194;2022-08-16T05:38:13;100683.13;;;29.05;47.61
49397;BME280;35615;41.410;2.194;2022-08-16T05:41:01;100684.72;;;29.09;47.40
49397;BME280;35615;41.410;2.194;2022-08-16T05:43:36;100685.66;;;29.08;47.21
49397;BME280;35615;41.410;2.194;2022-08-16T05:46:17;100692.69;;;29.09;47.28
49397;BME280;35615;41.410;2.194;2022-08-16T05:49:11;100691.53;;;29.16;46.72
49397;BME280;35615;41.410;2.194;2022-08-16T05:51:49;100687.00;;;29.18;46.78
49397;BME280;35615;41.410;2.194;2022-08-16T05:54:18;100701.13;;;29.20;46.71
49397;BME280;35615;41.410;2.194;2022-08-16T05:56:57;100695.59;;;29.25;47.05
49397;BME280;35615;41.410;2.194;2022-08-16T05:59:26;100693.63;;;29.30;46.69
49397;BME280;35615;41.410;2.194;2022-08-16T06:01:56;100696.03;;;29.36;46.73
49397;BME280;35615;41.410;2.194;2022-08-16T06:04:32;100693.13;;;29.42;46.53
49397;BME280;35615;41.410;2.194;2022-08-16T06:07:05;100691.41;;;29.41;47.02
49397;BME280;35615;41.410;2.194;2022-08-16T06:09:55;100691.41;;;29.41;46.57
49397;BME280;35615;41.410;2.194;2022-08-16T06:12:29;100694.66;;;29.49;46.67
49397;BME280;35615;41.410;2.194;2022-08-16T06:15:06;100686.59;;;29.51;46.90
49397;BME280;35615;41.410;2.194;2022-08-16T06:17:40;100691.06;;;29.50;46.97
49397;BME280;35615;41.410;2.194;2022-08-16T06:20:22;100687.56;;;29.48;46.47
49397;BME280;35615;41.410;2.194;2022-08-16T06:23:21;100685.94;;;29.44;47.21
49397;BME280;35615;41.410;2.194;2022-08-16T06:25:56;100685.53;;;29.55;46.42
49397;BME280;35615;41.410;2.194;2022-08-16T06:28:28;100686.34;;;29.57;46.49
49397;BME280;35615;41.410;2.194;2022-08-16T06:31:09;100687.56;;;29.48;46.73
49397;BME280;35615;41.410;2.194;2022-08-16T06:33:43;100681.28;;;29.51;45.92
49397;BME280;35615;41.410;2.194;2022-08-16T06:36:14;100691.94;;;29.51;46.20
49397;BME280;35615;41.410;2.194;2022-08-16T06:39:04;100687.94;;;29.39;46.34
49397;BME280;35615;41.410;2.194;2022-08-16T06:41:53;100689.69;;;29.62;45.51
49397;BME280;35615;41.410;2.194;2022-08-16T06:44:51;100685.09;;;29.66;45.96
49397;BME280;35615;41.410;2.194;2022-08-16T06:47:39;100682.09;;;29.53;45.38
49397;BME280;35615;41.410;2.194;2022-08-16T06:50:25;100684.16;;;29.67;45.02
49397;BME280;35615;41.410;2.194;2022-08-16T06:53:05;100678.97;;;29.64;45.47
49397;BME280;35615;41.410;2.194;2022-08-16T06:55:55;100682.13;;;29.73;45.05
49397;BME280;35615;41.410;2.194;2022-08-16T06:58:27;100685.56;;;29.75;45.07
49397;BME280;35615;41.410;2.194;2022-08-16T07:01:04;100693.28;;;29.82;44.83
49397;BME280;35615;41.410;2.194;2022-08-16T07:03:42;100688.72;;;29.85;44.93
49397;BME280;35615;41.410;2.194;2022-08-16T07:06:27;100691.38;;;29.85;45.05
49397;BME280;35615;41.410;2.194;2022-08-16T07:09:01;100686.72;;;29.90;45.02
49397;BME280;35615;41.410;2.194;2022-08-16T07:11:36;100698.31;;;29.89;44.96
49397;BME280;35615;41.410;2.194;2022-08-16T07:14:28;100696.31;;;29.94;44.71
49397;BME280;35615;41.410;2.194;2022-08-16T07:16:58;100697.84;;;30.00;44.45
49397;BME280;35615;41.410;2.194;2022-08-16T07:19:28;100706.47;;;30.06;44.33
49397;BME280;35615;41.410;2.194;2022-08-16T07:22:21;100696.22;;;30.18;44.18
49397;BME280;35615;41.410;2.194;2022-08-16T07:25:13;100709.66;;;30.15;44.26
49397;BME280;35615;41.410;2.194;2022-08-16T07:27:43;100704.00;;;30.22;44.54
49397;BME280;35615;41.410;2.194;2022-08-16T07:30:17;100709.16;;;30.27;44.07
49397;BME280;35615;41.410;2.194;2022-08-16T07:33:08;100705.41;;;30.31;44.38
49397;BME280;35615;41.410;2.194;2022-08-16T07:35:43;100709.78;;;30.32;43.83
49397;BME280;35615;41.410;2.194;2022-08-16T07:38:17;100706.25;;;30.31;44.46
49397;BME280;35615;41.410;2.194;2022-08-16T07:41:01;100711.13;;;30.42;43.88
49397;BME280;35615;41.410;2.194;2022-08-16T07:43:38;100713.00;;;30.40;44.08
49397;BME280;35615;41.410;2.194;2022-08-16T07:46:09;100727.41;;;30.55;43.74
49397;BME280;35615;41.410;2.194;2022-08-16T07:48:58;100716.59;;;30.58;43.61
49397;BME280;35615;41.410;2.194;2022-08-16T07:51:33;100717.09;;;30.68;43.12
49397;BME280;35615;41.410;2.194;2022-08-16T07:54:07;100716.75;;;30.75;43.40
49397;BME280;35615;41.410;2.194;2022-08-16T07:56:43;100715.38;;;30.85;43.60
49397;BME280;35615;41.410;2.194;2022-08-16T07:59:11;100716.81;;;30.74;43.30
49397;BME280;35615;41.410;2.194;2022-08-16T08:01:40;100729.59;;;30.86;43.15
49397;BME280;35615;41.410;2.194;2022-08-16T08:04:08;100727.94;;;30.83;43.06
49397;BME280;35615;41.410;2.194;2022-08-16T08:06:42;100726.56;;;30.75;43.24
49397;BME280;35615;41.410;2.194;2022-08-16T08:09:14;100740.34;;;30.84;43.18
49397;BME280;35615;41.410;2.194;2022-08-16T08:11:42;100730.72;;;30.80;43.53
49397;BME280;35615;41.410;2.194;2022-08-16T08:14:34;100736.59;;;30.88;44.11
49397;BME280;35615;41.410;2.194;2022-08-16T08:17:04;100737.09;;;30.97;43.92
49397;BME280;35615;41.410;2.194;2022-08-16T08:19:36;100738.31;;;31.08;43.97
49397;BME280;35615;41.410;2.194;2022-08-16T08:22:07;100742.44;;;31.15;44.09
49397;BME280;35615;41.410;2.194;2022-08-16T08:24:54;100734.75;;;31.64;43.59
49397;BME280;35615;41.410;2.194;2022-08-16T08:27:25;100734.16;;;31.76;44.32
49397;BME280;35615;41.410;2.194;2022-08-16T08:30:00;100740.22;;;32.15;44.45
49397;BME280;35615;41.410;2.194;2022-08-16T08:32:48;100741.25;;;32.47;43.94
49397;BME280;35615;41.410;2.194;2022-08-16T08:35:34;100740.16;;;32.51;44.15
49397;BME280;35615;41.410;2.194;2022-08-16T08:38:06;100745.22;;;32.73;43.76
49397;BME280;35615;41.410;2.194;2022-08-16T08:40:39;100746.84;;;32.92;43.84
49397;BME280;35615;41.410;2.194;2022-08-16T08:43:07;100752.88;;;32.96;43.41
49397;BME280;35615;41.410;2.194;2022-08-16T08:45:48;100754.00;;;33.23;43.41
49397;BME280;35615;41.410;2.194;2022-08-16T08:48:19;100754.59;;;33.13;43.83
49397;BME280;35615;41.410;2.194;2022-08-16T08:51:07;100750.28;;;33.10;44.11
49397;BME280;35615;41.410;2.194;2022-08-16T08:53:57;100754.97;;;33.22;44.03
49397;BME280;35615;41.410;2.194;2022-08-16T08:56:27;100746.00;;;33.55;43.28
49397;BME280;35615;41.410;2.194;2022-08-16T08:59:19;100753.59;;;33.15;44.16
49397;BME280;35615;41.410;2.194;2022-08-16T09:01:51;100751.25;;;33.25;43.92
49397;BME280;35615;41.410;2.194;2022-08-16T09:04:25;100755.16;;;33.51;43.25
49397;BME280;35615;41.410;2.194;2022-08-16T09:06:54;100751.47;;;33.38;43.50
49397;BME280;35615;41.410;2.194;2022-08-16T09:09:26;100749.19;;;33.46;43.32
49397;BME280;35615;41.410;2.194;2022-08-16T09:12:03;100751.03;;;33.91;42.32
49397;BME280;35615;41.410;2.194;2022-08-16T09:14:53;100757.47;;;34.19;41.93
49397;BME280;35615;41.410;2.194;2022-08-16T09:17:27;100748.56;;;34.32;42.21
49397;BME280;35615;41.410;2.194;2022-08-16T09:20:15;100751.78;;;34.09;42.21
49397;BME280;35615;41.410;2.194;2022-08-16T09:22:46;100755.84;;;34.30;42.05
49397;BME280;35615;41.410;2.194;2022-08-16T09:25:22;100754.47;;;34.67;41.17
49397;BME280;35615;41.410;2.194;2022-08-16T09:28:05;100753.81;;;34.50;41.63
49397;BME280;35615;41.410;2.194;2022-08-16T09:30:39;100751.59;;;34.56;41.51
49397;BME280;35615;41.410;2.194;2022-08-16T09:33:12;100754.13;;;34.88;41.23
49397;BME280;35615;41.410;2.194;2022-08-16T09:35:48;100754.53;;;35.23;40.61
49397;BME280;35615;41.410;2.194;2022-08-16T09:38:21;100755.25;;;34.84;41.10
49397;BME280;35615;41.410;2.194;2022-08-16T09:41:03;100763.94;;;35.30;40.63
49397;BME280;35615;41.410;2.194;2022-08-16T09:43:41;100746.13;;;35.56;39.97
49397;BME280;35615;41.410;2.194;2022-08-16T09:46:29;100739.75;;;35.71;39.51
49397;BME280;35615;41.410;2.194;2022-08-16T09:49:15;100737.16;;;35.43;40.15
49397;BME280;35615;41.410;2.194;2022-08-16T09:51:48;100734.81;;;35.78;39.75
49397;BME280;35615;41.410;2.194;2022-08-16T09:54:24;100721.16;;;36.33;38.65
49397;BME280;35615;41.410;2.194;2022-08-16T09:56:58;100730.13;;;36.34;38.67
49397;BME280;35615;41.410;2.194;2022-08-16T09:59:25;100728.19;;;36.61;37.84
49397;BME280;35615;41.410;2.194;2022-08-16T10:01:56;100746.44;;;36.18;38.69
49397;BME280;35615;41.410;2.194;2022-08-16T10:04:23;100755.72;;;36.27;38.39
49397;BME280;35615;41.410;2.194;2022-08-16T10:07:03;100770.19;;;35.31;40.20
49397;BME280;35615;41.410;2.194;2022-08-16T10:09:43;100773.75;;;36.12;38.58
49397;BME280;35615;41.410;2.194;2022-08-16T10:12:23;100783.59;;;36.26;38.60
49397;BME280;35615;41.410;2.194;2022-08-16T10:15:13;100783.31;;;35.76;39.30
49397;BME280;35615;41.410;2.194;2022-08-16T10:17:50;100774.56;;;35.46;39.68
49397;BME280;35615;41.410;2.194;2022-08-16T10:20:31;100777.28;;;35.32;40.18
49397;BME280;35615;41.410;2.194;2022-08-16T10:23:01;100776.97;;;35.36;40.59
49397;BME280;35615;41.410;2.194;2022-08-16T10:25:36;100781.59;;;35.20;40.35
49397;BME280;35615;41.410;2.194;2022-08-16T10:28:27;100785.19;;;35.06;41.35
49397;BME280;35615;41.410;2.194;2022-08-16T10:31:08;100780.50;;;34.96;41.49
49397;BME280;35615;41.410;2.194;2022-08-16T10:33:56;100777.09;;;34.49;42.58
49397;BME280;35615;41.410;2.194;2022-08-16T10:36:25;100770.47;;;34.69;42.17
49397;BME280;35615;41.410;2.194;2022-08-16T10:39:05;100788.69;;;34.64;42.01
49397;BME280;35615;41.410;2.194;2022-08-16T10:41:34;100790.88;;;34.57;42.62
49397;BME280;35615;41.410;2.194;2022-08-16T10:44:02;100798.16;;;34.55;42.40
49397;BME280;35615;41.410;2.194;2022-08-16T10:46:35;100792.91;;;34.54;42.78
49397;BME280;35615;41.410;2.194;2022-08-16T10:49:10;100799.91;;;34.56;42.53
49397;BME280;35615;41.410;2.194;2022-08-16T10:51:38;100808.22;;;34.96;42.13
49397;BME280;35615;41.410;2.194;2022-08-16T10:54:25;100812.72;;;35.38;41.56
49397;BME280;35615;41.410;2.194;2022-08-16T10:56:57;100789.03;;;35.58;40.86
49397;BME280;35615;41.410;2.194;2022-08-16T10:59:28;100783.31;;;35.49;41.01
49397;BME280;35615;41.410;2.194;2022-08-16T11:02:20;100785.78;;;35.79;40.72
49397;BME280;35615;41.410;2.194;2022-08-16T11:05:09;100789.16;;;35.83;40.71
49397;BME280;35615;41.410;2.194;2022-08-16T11:07:43;100791.69;;;35.72;40.65
49397;BME280;35615;41.410;2.194;2022-08-16T11:10:32;100777.91;;;35.35;40.84
49397;BME280;35615;41.410;2.194;2022-08-16T11:13:23;100768.53;;;35.42;40.68
49397;BME280;35615;41.410;2.194;2022-08-16T11:16:13;100768.97;;;35.08;41.07
49397;BME280;35615;41.410;2.194;2022-08-16T11:18:54;100785.44;;;34.73;41.65
49397;BME280;35615;41.410;2.194;2022-08-16T11:21:38;100775.41;;;34.91;41.44
49397;BME280;35615;41.410;2.194;2022-08-16T11:24:26;100765.13;;;34.83;41.84
49397;BME280;35615;41.410;2.194;2022-08-16T11:27:12;100773.38;;;34.36;43.30
49397;BME280;35615;41.410;2.194;2022-08-16T11:29:48;100770.59;;;33.77;44.37
49397;BME280;35615;41.410;2.194;2022-08-16T11:32:23;100773.81;;;34.14;43.45
49397;BME280;35615;41.410;2.194;2022-08-16T11:35:11;100770.75;;;34.06;43.99
49397;BME280;35615;41.410;2.194;2022-08-16T11:37:46;100778.94;;;34.03;43.77
49397;BME280;35615;41.410;2.194;2022-08-16T11:40:55;100763.47;;;34.08;44.15
49397;BME280;35615;41.410;2.194;2022-08-16T11:43:26;100749.44;;;34.03;44.13
49397;BME280;35615;41.410;2.194;2022-08-16T11:46:09;100740.31;;;33.91;44.66
49397;BME280;35615;41.410;2.194;2022-08-16T11:49:12;100748.97;;;33.96;44.91
49397;BME280;35615;41.410;2.194;2022-08-16T11:51:54;100740.34;;;33.75;44.92
49397;BME280;35615;41.410;2.194;2022-08-16T11:54:34;100734.03;;;33.92;44.53
49397;BME280;35615;41.410;2.194;2022-08-16T11:57:13;100728.75;;;33.91;45.02
49397;BME280;35615;41.410;2.194;2022-08-16T12:00:04;100722.09;;;33.82;44.93
49397;BME280;35615;41.410;2.194;2022-08-16T12:02:55;100706.19;;;34.53;43.66
49397;BME280;35615;41.410;2.194;2022-08-16T12:05:45;100694.47;;;34.97;43.42
49397;BME280;35615;41.410;2.194;2022-08-16T12:08:26;100689.16;;;35.10;42.93
49397;BME280;35615;41.410;2.194;2022-08-16T12:10:56;100694.06;;;35.44;42.02
49397;BME280;35615;41.410;2.194;2022-08-16T12:13:39;100689.00;;;35.79;41.45
49397;BME280;35615;41.410;2.194;2022-08-16T12:16:22;100685.75;;;36.14;40.57
49397;BME280;35615;41.410;2.194;2022-08-16T12:19:05;100680.19;;;36.43;39.91
49397;BME280;35615;41.410;2.194;2022-08-16T12:22:06;100676.28;;;36.21;40.25
49397;BME280;35615;41.410;2.194;2022-08-16T12:24:49;100692.09;;;36.64;39.43
49397;BME280;35615;41.410;2.194;2022-08-16T12:27:48;100690.53;;;36.98;38.64
49397;BME280;35615;41.410;2.194;2022-08-16T12:30:42;100704.25;;;36.95;39.21
49397;BME280;35615;41.410;2.194;2022-08-16T12:33:12;100697.56;;;36.88;39.03
49397;BME280;35615;41.410;2.194;2022-08-16T12:35:52;100677.50;;;36.43;39.97
49397;BME280;35615;41.410;2.194;2022-08-16T12:38:19;100673.94;;;36.42;40.42
49397;BME280;35615;41.410;2.194;2022-08-16T12:41:06;100670.03;;;36.08;41.10
49397;BME280;35615;41.410;2.194;2022-08-16T12:43:34;100672.50;;;35.32;42.79
49397;BME280;35615;41.410;2.194;2022-08-16T12:46:02;100674.72;;;35.25;42.68
49397;BME280;35615;41.410;2.194;2022-08-16T12:48:35;100681.69;;;35.15;43.29
49397;BME280;35615;41.410;2.194;2022-08-16T12:51:30;100681.38;;;34.50;44.33
49397;BME280;35615;41.410;2.194;2022-08-16T12:54:20;100675.22;;;34.76;44.37
49397;BME280;35615;41.410;2.194;2022-08-16T12:56:48;100682.78;;;35.25;43.40
49397;BME280;35615;41.410;2.194;2022-08-16T12:59:16;100672.19;;;35.50;43.31
49397;BME280;35615;41.410;2.194;2022-08-16T13:01:47;100670.69;;;35.99;42.03
49397;BME280;35615;41.410;2.194;2022-08-16T13:04:25;100667.13;;;35.98;42.14
49397;BME280;35615;41.410;2.194;2022-08-16T13:07:00;100654.34;;;36.53;41.12
49397;BME280;35615;41.410;2.194;2022-08-16T13:09:28;100646.31;;;36.77;40.97
49397;BME280;35615;41.410;2.194;2022-08-16T13:12:09;100640.09;;;37.24;39.76
49397;BME280;35615;41.410;2.194;2022-08-16T13:14:47;100633.97;;;37.22;39.85
49397;BME280;35615;41.410;2.194;2022-08-16T13:17:19;100625.16;;;37.44;39.40
49397;BME280;35615;41.410;2.194;2022-08-16T13:19:49;100631.06;;;37.84;38.94
49397;BME280;35615;41.410;2.194;2022-08-16T13:22:37;100621.19;;;38.07;38.21
49397;BME280;35615;41.410;2.194;2022-08-16T13:25:12;100612.22;;;37.95;37.49
49397;BME280;35615;41.410;2.194;2022-08-16T13:27:47;100609.53;;;38.06;37.81
49397;BME280;35615;41.410;2.194;2022-08-16T13:30:38;100613.06;;;37.85;37.59
49397;BME280;35615;41.410;2.194;2022-08-16T13:33:14;100609.56;;;38.29;36.48
49397;BME280;35615;41.410;2.194;2022-08-16T13:35:57;100610.66;;;38.38;36.34
49397;BME280;35615;41.410;2.194;2022-08-16T13:38:29;100613.16;;;37.37;37.31
49397;BME280;35615;41.410;2.194;2022-08-16T13:41:09;100618.75;;;37.69;37.12
49397;BME280;35615;41.410;2.194;2022-08-16T13:43:39;100615.66;;;37.97;37.11
49397;BME280;35615;41.410;2.194;2022-08-16T13:46:06;100615.19;;;38.15;36.79
49397;BME280;35615;41.410;2.194;2022-08-16T13:48:35;100604.72;;;37.99;36.94
49397;BME280;35615;41.410;2.194;2022-08-16T13:51:15;100609.41;;;38.08;36.91
49397;BME280;35615;41.410;2.194;2022-08-16T13:53:49;100593.34;;;37.95;36.42
49397;BME280;35615;41.410;2.194;2022-08-16T13:56:26;100587.69;;;37.98;36.91